createdAt,value
2022-11-13T00:00:24.504Z,76.60
2022-11-13T00:03:30.649Z,76.70
2022-11-13T00:06:33.845Z,76.90
2022-11-13T00:09:36.842Z,76.70
2022-11-13T00:12:41.087Z,76.50
2022-11-13T00:15:44.025Z,76.60
2022-11-13T00:18:48.125Z,76.60
2022-11-13T00:21:50.948Z,76.60
2022-11-13T00:24:54.296Z,77.00
2022-11-13T00:27:58.575Z,75.90
2022-11-13T00:31:02.159Z,76.50
2022-11-13T00:34:25.945Z,76.60
2022-11-13T00:37:27.984Z,76.60
2022-11-13T00:40:30.995Z,76.70
2022-11-13T00:43:35.329Z,77.20
2022-11-13T00:46:38.462Z,77.10
2022-11-13T00:49:41.530Z,77.20
2022-11-13T00:52:44.608Z,77.20
2022-11-13T00:55:47.881Z,77.20
2022-11-13T00:58:52.264Z,77.70
2022-11-13T01:01:55.297Z,77.50
2022-11-13T01:04:58.283Z,77.40
2022-11-13T01:08:01.308Z,77.50
2022-11-13T01:11:11.542Z,77.40
2022-11-13T01:14:15.918Z,77.40
2022-11-13T01:17:18.851Z,77.10
2022-11-13T01:20:23.861Z,77.20
2022-11-13T01:23:26.771Z,77.30
2022-11-13T01:26:31.763Z,77.30
2022-11-13T01:29:36.240Z,77.30
2022-11-13T01:32:39.145Z,77.30
2022-11-13T01:35:42.120Z,77.50
2022-11-13T01:38:46.325Z,77.50
2022-11-13T01:41:49.240Z,77.50
2022-11-13T01:44:56.199Z,78.10
2022-11-13T01:47:59.681Z,77.30
2022-11-13T01:51:12.593Z,77.40
2022-11-13T01:54:21.562Z,77.20
2022-11-13T01:57:25.478Z,77.30
2022-11-13T02:00:29.866Z,78.20
2022-11-13T02:03:33.056Z,77.50
2022-11-13T02:06:43.581Z,77.30
2022-11-13T02:09:50.537Z,77.20
2022-11-13T02:12:53.652Z,77.10
2022-11-13T02:15:58.780Z,77.20
2022-11-13T02:19:04.803Z,77.20
2022-11-13T02:22:19.514Z,77.00
2022-11-13T02:25:26.460Z,76.90
2022-11-13T02:28:29.816Z,76.90
2022-11-13T02:31:33.193Z,76.80
2022-11-13T02:34:36.351Z,77.00
2022-11-13T02:37:39.553Z,77.00
2022-11-13T02:40:44.211Z,77.20
2022-11-13T02:43:47.136Z,77.00
2022-11-13T02:46:50.070Z,77.00
2022-11-13T02:49:53.038Z,77.10
2022-11-13T02:52:56.077Z,77.70
2022-11-13T02:56:00.681Z,77.00
2022-11-13T02:59:03.986Z,77.20
2022-11-13T03:02:06.985Z,77.00
2022-11-13T03:05:12.822Z,76.90
2022-11-13T03:08:16.580Z,76.90
2022-11-13T03:11:21.001Z,76.90
2022-11-13T03:14:24.001Z,76.80
2022-11-13T03:17:26.967Z,76.80
2022-11-13T03:20:30.036Z,76.80
2022-11-13T03:23:32.962Z,76.80
2022-11-13T03:26:37.205Z,76.90
2022-11-13T03:29:40.192Z,76.90
2022-11-13T03:32:43.211Z,76.80
2022-11-13T03:35:47.235Z,76.70
2022-11-13T03:38:50.261Z,76.60
2022-11-13T03:41:54.593Z,76.70
2022-11-13T03:44:57.612Z,76.70
2022-11-13T03:48:00.614Z,76.80
2022-11-13T03:51:03.913Z,77.00
2022-11-13T03:54:06.996Z,77.20
2022-11-13T03:57:11.384Z,77.20
2022-11-13T04:00:16.190Z,77.30
2022-11-13T04:03:20.125Z,77.60
2022-11-13T04:06:23.321Z,77.10
2022-11-13T04:09:26.478Z,77.00
2022-11-13T04:12:30.738Z,77.00
2022-11-13T04:15:34.055Z,77.00
2022-11-13T04:18:37.020Z,77.00
2022-11-13T04:21:39.927Z,77.30
2022-11-13T04:24:42.977Z,77.00
2022-11-13T04:27:47.336Z,77.10
2022-11-13T04:30:54.323Z,77.00
2022-11-13T04:33:57.303Z,76.90
2022-11-13T04:37:00.385Z,77.00
2022-11-13T04:40:03.388Z,76.90
2022-11-13T04:43:07.335Z,76.70
2022-11-13T04:46:10.323Z,76.40
2022-11-13T04:49:13.466Z,76.40
2022-11-13T04:52:16.579Z,76.40
2022-11-13T04:55:19.822Z,76.40
2022-11-13T04:58:24.232Z,76.40
2022-11-13T05:01:27.326Z,76.20
2022-11-13T05:04:30.344Z,76.20
2022-11-13T05:07:33.432Z,76.30
2022-11-13T05:10:36.414Z,76.30
2022-11-13T05:13:41.011Z,76.20
2022-11-13T05:16:43.963Z,76.20
2022-11-13T05:19:46.891Z,76.20
2022-11-13T05:22:49.881Z,76.20
2022-11-13T05:25:53.425Z,76.00
2022-11-13T05:28:59.848Z,75.80
2022-11-13T05:32:02.800Z,75.60
2022-11-13T05:35:06.530Z,75.50
2022-11-13T05:38:09.551Z,75.30
2022-11-13T05:41:17.078Z,75.30
2022-11-13T05:44:21.418Z,75.30
2022-11-13T05:47:24.398Z,75.20
2022-11-13T05:50:27.374Z,75.10
2022-11-13T05:53:30.833Z,75.00
2022-11-13T05:56:37.210Z,74.60
2022-11-13T05:59:41.604Z,74.60
2022-11-13T06:02:45.223Z,74.60
2022-11-13T06:05:48.262Z,74.60
2022-11-13T06:08:53.293Z,74.10
2022-11-13T06:11:56.275Z,74.10
2022-11-13T06:15:00.537Z,73.90
2022-11-13T06:18:03.491Z,73.90
2022-11-13T06:21:10.255Z,74.50
2022-11-13T06:24:14.345Z,74.50
2022-11-13T06:27:17.205Z,74.20
2022-11-13T06:30:21.858Z,74.00
2022-11-13T06:33:24.841Z,74.10
2022-11-13T06:36:33.348Z,74.10
2022-11-13T06:39:36.304Z,73.70
2022-11-13T06:42:39.296Z,73.80
2022-11-13T06:45:43.623Z,73.80
2022-11-13T06:48:47.527Z,73.50
2022-11-13T06:51:50.534Z,73.90
2022-11-13T06:54:53.493Z,74.00
2022-11-13T06:57:56.418Z,73.90
2022-11-13T07:01:07.758Z,74.10
2022-11-13T07:04:13.512Z,74.10
2022-11-13T07:07:16.696Z,74.30
2022-11-13T07:10:19.762Z,74.30
2022-11-13T07:13:23.273Z,74.30
2022-11-13T07:16:38.942Z,74.20
2022-11-13T07:19:47.355Z,74.30
2022-11-13T07:22:50.398Z,74.20
2022-11-13T07:25:55.608Z,74.10
2022-11-13T07:28:58.856Z,73.90
2022-11-13T07:32:03.355Z,74.00
2022-11-13T07:35:07.613Z,73.80
2022-11-13T07:38:10.767Z,73.80
2022-11-13T07:41:13.762Z,73.80
2022-11-13T07:44:39.917Z,73.90
2022-11-13T07:47:41.188Z,74.10
2022-11-13T07:50:44.197Z,74.20
2022-11-13T07:53:47.272Z,74.90
2022-11-13T07:56:50.354Z,74.50
2022-11-13T07:59:53.558Z,74.40
2022-11-13T08:02:58.341Z,74.50
2022-11-13T08:06:03.411Z,74.30
2022-11-13T08:09:07.165Z,74.30
2022-11-13T08:12:10.235Z,74.80
2022-11-13T08:15:13.911Z,74.30
2022-11-13T08:18:18.302Z,73.90
2022-11-13T08:21:22.136Z,73.40
2022-11-13T08:24:25.095Z,73.30
2022-11-13T08:27:28.095Z,73.70
2022-11-13T08:30:31.241Z,73.50
2022-11-13T08:33:35.652Z,73.50
2022-11-13T08:36:38.717Z,73.30
2022-11-13T08:39:41.832Z,73.00
2022-11-13T08:42:45.096Z,73.20
2022-11-13T08:45:48.337Z,72.70
2022-11-13T08:48:52.631Z,72.50
2022-11-13T08:51:55.596Z,72.10
2022-11-13T08:54:58.692Z,72.10
2022-11-13T08:58:03.996Z,72.10
2022-11-13T09:01:07.162Z,72.00
2022-11-13T09:04:11.548Z,72.40
2022-11-13T09:07:14.945Z,71.80
2022-11-13T09:10:19.030Z,72.00
2022-11-13T09:13:21.982Z,72.00
2022-11-13T09:16:25.066Z,71.40
2022-11-13T09:19:29.437Z,71.80
2022-11-13T09:22:32.595Z,71.50
2022-11-13T09:25:38.319Z,71.50
2022-11-13T09:28:41.574Z,71.30
2022-11-13T09:31:44.626Z,71.40
2022-11-13T09:34:48.928Z,71.20
2022-11-13T09:37:53.452Z,70.80
2022-11-13T09:41:05.049Z,70.70
2022-11-13T09:44:17.263Z,70.70
2022-11-13T09:47:25.766Z,70.90
2022-11-13T09:50:33.305Z,70.70
2022-11-13T09:53:39.622Z,70.50
2022-11-13T09:56:51.275Z,70.70
2022-11-13T10:00:06.669Z,70.70
2022-11-13T10:03:59.251Z,70.70
2022-11-13T10:07:23.986Z,70.40
2022-11-13T10:10:56.901Z,70.80
2022-11-13T10:14:05.251Z,70.50
2022-11-13T10:17:17.108Z,70.80
2022-11-13T10:20:25.673Z,70.70
2022-11-13T10:23:35.976Z,70.80
2022-11-13T10:26:39.240Z,70.90
2022-11-13T10:29:48.639Z,71.20
2022-11-13T10:32:52.799Z,71.20
2022-11-13T10:36:08.579Z,71.00
2022-11-13T10:39:16.952Z,70.90
2022-11-13T10:42:29.619Z,71.50
2022-11-13T10:45:32.639Z,70.80
2022-11-13T10:52:00.747Z,70.90
2022-11-13T10:55:18.991Z,70.40
2022-11-13T10:58:22.367Z,70.70
2022-11-13T11:01:26.554Z,71.00
2022-11-13T11:04:30.724Z,71.30
2022-11-13T11:07:42.204Z,71.40
2022-11-13T11:11:16.413Z,71.20
2022-11-13T11:14:28.108Z,71.70
2022-11-13T11:17:40.934Z,71.40
2022-11-13T11:20:50.785Z,71.20
2022-11-13T11:24:04.110Z,71.00
2022-11-13T11:27:23.015Z,71.00
2022-11-13T11:30:34.150Z,71.10
2022-11-13T11:33:48.655Z,71.30
2022-11-13T11:37:10.083Z,71.30
2022-11-13T11:40:25.940Z,71.00
2022-11-13T11:43:42.557Z,71.00
2022-11-13T11:46:46.919Z,70.80
2022-11-13T11:49:51.488Z,71.00
2022-11-13T11:53:05.218Z,71.00
2022-11-13T11:56:24.502Z,71.10
2022-11-13T11:59:57.989Z,71.20
2022-11-13T12:03:44.614Z,71.10
2022-11-13T12:07:04.750Z,71.00
2022-11-13T12:10:25.872Z,71.20
2022-11-13T12:13:33.343Z,71.30
2022-11-13T12:16:51.982Z,71.50
2022-11-13T12:20:09.653Z,71.30
2022-11-13T12:23:36.403Z,71.30
2022-11-13T12:26:51.434Z,71.40
2022-11-13T12:30:13.614Z,71.70
2022-11-13T12:33:34.708Z,71.60
2022-11-13T12:36:44.615Z,71.70
2022-11-13T12:39:56.652Z,71.70
2022-11-13T12:43:24.177Z,71.60
2022-11-13T12:46:37.119Z,71.70
2022-11-13T12:49:42.291Z,71.60
2022-11-13T12:52:45.542Z,71.80
2022-11-13T12:56:00.353Z,71.90
2022-11-13T12:59:31.607Z,72.10
2022-11-13T13:02:56.824Z,72.20
2022-11-13T13:06:24.469Z,72.20
2022-11-13T13:09:46.107Z,72.30
2022-11-13T13:13:00.752Z,72.60
2022-11-13T13:16:08.752Z,72.50
2022-11-13T13:19:28.532Z,72.60
2022-11-13T13:22:36.384Z,73.00
2022-11-13T13:25:41.888Z,73.00
2022-11-13T13:28:51.237Z,73.10
2022-11-13T13:32:10.065Z,73.10
2022-11-13T13:35:23.409Z,72.90
2022-11-13T13:38:39.706Z,72.90
2022-11-13T13:42:02.041Z,73.00
2022-11-13T13:45:26.296Z,73.00
2022-11-13T13:48:32.965Z,73.10
2022-11-13T13:51:42.966Z,73.10
2022-11-13T13:54:49.131Z,73.20
2022-11-13T13:57:52.784Z,73.30
2022-11-13T14:01:17.715Z,73.40
2022-11-13T14:04:24.514Z,73.50
2022-11-13T14:07:30.915Z,73.70
2022-11-13T14:10:37.959Z,73.70
2022-11-13T14:13:41.892Z,73.60
2022-11-13T14:16:51.447Z,73.80
2022-11-13T14:20:00.908Z,73.90
2022-11-13T14:23:06.548Z,73.80
2022-11-13T14:26:12.154Z,74.00
2022-11-13T14:29:30.006Z,74.60
2022-11-13T14:32:45.663Z,74.40
2022-11-13T14:35:57.936Z,74.30
2022-11-13T14:39:02.148Z,74.50
2022-11-13T14:42:07.867Z,74.50
2022-11-13T14:45:24.380Z,75.00
2022-11-13T14:48:30.358Z,74.70
2022-11-13T14:51:36.316Z,74.70
2022-11-13T14:55:13.659Z,74.90
2022-11-13T14:58:07.498Z,74.80
2022-11-13T15:01:17.848Z,75.00
2022-11-13T15:04:22.835Z,75.10
2022-11-13T15:07:32.286Z,75.80
2022-11-13T15:10:35.667Z,75.10
2022-11-13T15:13:42.717Z,75.00
2022-11-13T15:16:49.927Z,75.10
2022-11-13T15:19:56.246Z,75.00
2022-11-13T15:23:00.899Z,75.30
2022-11-13T15:26:04.787Z,75.20
2022-11-13T15:29:09.561Z,75.20
2022-11-13T15:32:15.085Z,75.70
2022-11-13T15:35:24.213Z,75.40
2022-11-13T15:38:28.054Z,75.70
2022-11-13T15:41:34.015Z,75.70
2022-11-13T15:44:39.093Z,76.10
2022-11-13T15:47:47.978Z,76.00
2022-11-13T15:50:52.278Z,76.30
2022-11-13T15:54:02.939Z,76.30
2022-11-13T15:57:08.088Z,76.50
2022-11-13T16:00:21.619Z,76.40
2022-11-13T16:03:27.399Z,76.60
2022-11-13T16:06:33.741Z,76.50
2022-11-13T16:09:37.217Z,76.40
2022-11-13T16:12:43.255Z,76.50
2022-11-13T16:15:49.412Z,76.60
2022-11-13T16:18:59.823Z,76.70
2022-11-13T16:22:03.715Z,76.70
2022-11-13T16:25:09.775Z,77.10
2022-11-13T16:28:17.507Z,76.70
2022-11-13T16:31:24.793Z,76.90
2022-11-13T16:34:29.604Z,77.10
2022-11-13T16:37:33.349Z,77.00
2022-11-13T16:40:36.822Z,77.00
2022-11-13T16:43:40.012Z,77.00
2022-11-13T16:46:49.587Z,77.00
2022-11-13T16:49:53.785Z,77.10
2022-11-13T16:52:57.170Z,77.30
2022-11-13T16:56:01.706Z,77.30
2022-11-13T16:59:05.624Z,77.40
2022-11-13T17:02:17.334Z,77.30
2022-11-13T17:05:23.738Z,77.70
2022-11-13T17:08:26.970Z,77.40
2022-11-13T17:11:32.687Z,77.30
2022-11-13T17:14:36.122Z,77.30
2022-11-13T17:17:42.221Z,77.40
2022-11-13T17:20:46.139Z,77.50
2022-11-13T17:23:49.527Z,77.50
2022-11-13T17:26:52.766Z,77.60
2022-11-13T17:29:55.821Z,77.90
2022-11-13T17:33:00.414Z,77.30
2022-11-13T17:36:03.628Z,77.90
2022-11-13T17:39:06.724Z,77.70
2022-11-13T17:42:10.734Z,77.30
2022-11-13T17:45:14.317Z,77.30
2022-11-13T17:48:19.882Z,77.40
2022-11-13T17:51:24.474Z,77.40
2022-11-13T17:54:29.596Z,77.30
2022-11-13T17:57:33.867Z,77.30
2022-11-13T18:00:37.164Z,77.20
2022-11-13T18:03:42.621Z,77.40
2022-11-13T18:06:46.486Z,77.80
2022-11-13T18:09:49.662Z,77.40
2022-11-13T18:12:53.326Z,77.50
2022-11-13T18:15:56.495Z,77.60
2022-11-13T18:19:03.689Z,77.70
2022-11-13T18:22:06.887Z,77.80
2022-11-13T18:25:11.115Z,77.80
2022-11-13T18:28:14.412Z,77.90
2022-11-13T18:31:21.138Z,78.00
2022-11-13T18:34:26.041Z,77.90
2022-11-13T18:37:30.294Z,78.00
2022-11-13T18:40:33.643Z,77.90
2022-11-13T18:43:37.849Z,78.10
2022-11-13T18:46:40.957Z,78.20
2022-11-13T18:49:45.574Z,78.60
2022-11-13T18:52:48.751Z,78.00
2022-11-13T18:55:52.177Z,78.10
2022-11-13T18:58:57.400Z,78.10
2022-11-13T19:02:00.747Z,78.30
2022-11-13T19:05:06.333Z,78.20
2022-11-13T19:08:09.772Z,78.20
2022-11-13T19:11:17.654Z,78.20
2022-11-13T19:14:21.591Z,78.20
2022-11-13T19:17:24.724Z,78.30
2022-11-13T19:20:29.335Z,78.30
2022-11-13T19:23:32.835Z,78.40
2022-11-13T19:26:36.116Z,78.30
2022-11-13T19:29:39.495Z,78.40
2022-11-13T19:32:42.707Z,78.50
2022-11-13T19:35:48.011Z,78.40
2022-11-13T19:38:51.480Z,78.50
2022-11-13T19:41:55.073Z,78.50
2022-11-13T19:44:58.293Z,78.50
2022-11-13T19:48:01.549Z,78.50
2022-11-13T19:51:09.641Z,78.40
2022-11-13T19:54:20.709Z,78.30
2022-11-13T19:57:28.406Z,78.60
2022-11-13T20:00:34.852Z,79.40
2022-11-13T20:03:39.352Z,79.20
2022-11-13T20:06:44.439Z,78.70
2022-11-13T20:09:49.619Z,78.90
2022-11-13T20:12:58.357Z,78.90
2022-11-13T20:16:04.009Z,79.00
2022-11-13T20:19:07.882Z,79.20
2022-11-13T20:22:12.407Z,79.10
2022-11-13T20:25:15.992Z,79.30
2022-11-13T20:28:19.315Z,79.30
2022-11-13T20:31:24.747Z,79.30
2022-11-13T20:34:28.642Z,79.30
2022-11-13T20:37:33.670Z,79.30
2022-11-13T20:40:36.897Z,79.40
2022-11-13T20:43:40.973Z,79.40
2022-11-13T20:46:44.044Z,79.50
2022-11-13T20:49:47.626Z,79.40
2022-11-13T20:52:52.445Z,79.20
2022-11-13T20:55:55.635Z,79.20
2022-11-13T20:58:58.961Z,79.10
2022-11-13T21:02:02.173Z,79.10
2022-11-13T21:05:06.644Z,79.20
2022-11-13T21:08:12.492Z,79.20
2022-11-13T21:11:19.305Z,80.30
2022-11-13T21:14:22.583Z,79.30
2022-11-13T21:17:25.924Z,79.30
2022-11-13T21:20:29.163Z,79.40
2022-11-13T21:23:33.789Z,79.30
2022-11-13T21:26:36.935Z,79.20
2022-11-13T21:29:40.073Z,79.20
2022-11-13T21:32:43.579Z,79.20
2022-11-13T21:35:46.902Z,79.10
2022-11-13T21:38:53.641Z,79.10
2022-11-13T21:41:56.668Z,78.70
2022-11-13T21:45:00.079Z,78.70
2022-11-13T21:48:03.150Z,78.40
2022-11-13T21:51:07.562Z,78.80
2022-11-13T21:54:12.076Z,78.20
2022-11-13T21:57:15.794Z,78.30
2022-11-13T22:00:20.735Z,78.30
2022-11-13T22:03:24.522Z,78.20
2022-11-13T22:06:30.210Z,78.10
2022-11-13T22:09:34.950Z,78.10
2022-11-13T22:12:38.473Z,78.10
2022-11-13T22:15:42.690Z,77.90
2022-11-13T22:18:46.114Z,78.40
2022-11-13T22:21:49.382Z,78.10
2022-11-13T22:24:54.035Z,77.90
2022-11-13T22:27:57.364Z,78.20
2022-11-13T22:31:01.688Z,78.40
2022-11-13T22:34:05.747Z,78.50
2022-11-13T22:37:09.023Z,78.50
2022-11-13T22:40:16.821Z,78.60
2022-11-13T22:43:20.327Z,78.70
2022-11-13T22:46:25.691Z,78.40
2022-11-13T22:49:28.892Z,78.40
2022-11-13T22:52:32.012Z,78.40
2022-11-13T22:55:36.782Z,78.40
2022-11-13T22:58:40.671Z,78.50
2022-11-13T23:01:46.340Z,78.40
2022-11-13T23:04:49.558Z,78.20
2022-11-13T23:07:54.447Z,77.90
2022-11-13T23:11:01.043Z,77.60
2022-11-13T23:14:06.862Z,77.60
2022-11-13T23:17:10.734Z,77.40
2022-11-13T23:20:14.628Z,77.00
2022-11-13T23:23:18.503Z,76.70
2022-11-13T23:26:24.602Z,76.50
2022-11-13T23:29:27.960Z,76.50
2022-11-13T23:32:31.467Z,77.00
2022-11-13T23:35:34.689Z,76.80
2022-11-13T23:38:38.402Z,76.90
2022-11-13T23:41:42.921Z,77.20
2022-11-13T23:44:46.597Z,77.30
2022-11-13T23:47:50.230Z,77.50
2022-11-13T23:50:53.596Z,77.20
2022-11-13T23:53:56.802Z,77.20
2022-11-13T23:57:01.276Z,77.40
